sensor_id;sensor_type;location;lat;lon;timestamp;pressure;altitude;pressure_sealevel;temperature;humidity
68376;BME280;55318;52.068;5.188;2023-05-10T00:01:51;100877.0;;;14.23;100.0
68376;BME280;55318;52.068;5.188;2023-05-10T00:03:27;100877.0;;;14.26;100.0
68376;BME280;55318;52.068;5.188;2023-05-10T00:05:04;100872.0;;;14.21;100.0
68376;BME280;55318;52.068;5.188;2023-05-10T00:08:17;100869.0;;;14.17;100.0
68376;BME280;55318;52.068;5.188;2023-05-10T00:09:53;100867.0;;;14.14;100.0
68376;BME280;55318;52.068;5.188;2023-05-10T00:11:29;100863.0;;;14.15;100.0
68376;BME280;55318;52.068;5.188;2023-05-10T00:14:41;100862.0;;;14.12;100.0
68376;BME280;55318;52.068;5.188;2023-05-10T00:16:17;100865.0;;;14.15;100.0
68376;BME280;55318;52.068;5.188;2023-05-10T00:17:53;100861.0;;;14.11;100.0
68376;BME280;55318;52.068;5.188;2023-05-10T00:21:06;100863.0;;;14.08;100.0
68376;BME280;55318;52.068;5.188;2023-05-10T00:22:42;100862.0;;;14.21;100.0
68376;BME280;55318;52.068;5.188;2023-05-10T00:24:18;100865.0;;;14.16;100.0
68376;BME280;55318;52.068;5.188;2023-05-10T00:25:54;100867.0;;;14.13;100.0
68376;BME280;55318;52.068;5.188;2023-05-10T00:29:06;100868.0;;;14.13;100.0
68376;BME280;55318;52.068;5.188;2023-05-10T00:30:42;100868.0;;;14.17;100.0
68376;BME280;55318;52.068;5.188;2023-05-10T00:32:18;100868.0;;;14.25;100.0
68376;BME280;55318;52.068;5.188;2023-05-10T00:35:32;100870.0;;;14.28;100.0
68376;BME280;55318;52.068;5.188;2023-05-10T00:37:08;100870.0;;;14.43;100.0
68376;BME280;55318;52.068;5.188;2023-05-10T00:38:44;100866.0;;;14.42;100.0
68376;BME280;55318;52.068;5.188;2023-05-10T00:41:56;100862.0;;;14.46;100.0
68376;BME280;55318;52.068;5.188;2023-05-10T00:43:32;100857.0;;;14.45;100.0
68376;BME280;55318;52.068;5.188;2023-05-10T00:45:09;100855.0;;;14.53;100.0
68376;BME280;55318;52.068;5.188;2023-05-10T00:48:21;100863.0;;;14.64;100.0
68376;BME280;55318;52.068;5.188;2023-05-10T00:49:58;100866.0;;;14.65;100.0
68376;BME280;55318;52.068;5.188;2023-05-10T00:51:34;100866.0;;;14.7;100.0
68376;BME280;55318;52.068;5.188;2023-05-10T00:53:10;100865.0;;;14.69;100.0
68376;BME280;55318;52.068;5.188;2023-05-10T00:56:22;100868.0;;;14.71;100.0
68376;BME280;55318;52.068;5.188;2023-05-10T00:57:58;100872.0;;;14.62;100.0
68376;BME280;55318;52.068;5.188;2023-05-10T00:59:35;100874.0;;;14.56;100.0
68376;BME280;55318;52.068;5.188;2023-05-10T01:02:49;100874.0;;;14.55;100.0
68376;BME280;55318;52.068;5.188;2023-05-10T01:04:25;100875.0;;;14.65;100.0
68376;BME280;55318;52.068;5.188;2023-05-10T01:06:01;100873.0;;;14.55;100.0
68376;BME280;55318;52.068;5.188;2023-05-10T01:09:13;100870.0;;;14.58;100.0
68376;BME280;55318;52.068;5.188;2023-05-10T01:10:49;100871.0;;;14.51;100.0
68376;BME280;55318;52.068;5.188;2023-05-10T01:12:26;100870.0;;;14.67;100.0
68376;BME280;55318;52.068;5.188;2023-05-10T01:14:02;100868.0;;;14.63;100.0
68376;BME280;55318;52.068;5.188;2023-05-10T01:17:16;100868.0;;;14.57;100.0
68376;BME280;55318;52.068;5.188;2023-05-10T01:18:53;100867.0;;;14.71;100.0
68376;BME280;55318;52.068;5.188;2023-05-10T01:20:34;100870.0;;;14.67;100.0
68376;BME280;55318;52.068;5.188;2023-05-10T01:28:15;100871.0;;;14.71;100.0
68376;BME280;55318;52.068;5.188;2023-05-10T01:30:11;100870.0;;;14.73;100.0
68376;BME280;55318;52.068;5.188;2023-05-10T01:32:11;100873.0;;;14.63;100.0
68376;BME280;55318;52.068;5.188;2023-05-10T01:33:55;100878.0;;;14.68;100.0
68376;BME280;55318;52.068;5.188;2023-05-10T01:35:37;100880.0;;;14.72;100.0
68376;BME280;55318;52.068;5.188;2023-05-10T01:37:21;100875.0;;;14.71;100.0
68376;BME280;55318;52.068;5.188;2023-05-10T01:40:54;100873.0;;;14.79;100.0
68376;BME280;55318;52.068;5.188;2023-05-10T01:42:41;100871.0;;;14.6;100.0
68376;BME280;55318;52.068;5.188;2023-05-10T01:44:28;100873.0;;;14.58;100.0
68376;BME280;55318;52.068;5.188;2023-05-10T01:46:14;100878.0;;;14.6;100.0
68376;BME280;55318;52.068;5.188;2023-05-10T01:47:59;100880.0;;;14.51;100.0
68376;BME280;55318;52.068;5.188;2023-05-10T01:49:42;100878.0;;;14.48;100.0
68376;BME280;55318;52.068;5.188;2023-05-10T01:53:00;100877.0;;;14.5;100.0
68376;BME280;55318;52.068;5.188;2023-05-10T01:54:38;100880.0;;;14.52;100.0
68376;BME280;55318;52.068;5.188;2023-05-10T01:56:19;100881.0;;;14.54;100.0
68376;BME280;55318;52.068;5.188;2023-05-10T01:58:04;100889.0;;;14.43;100.0
68376;BME280;55318;52.068;5.188;2023-05-10T02:01:21;100884.0;;;14.48;100.0
68376;BME280;55318;52.068;5.188;2023-05-10T02:03:00;100890.0;;;14.36;100.0
68376;BME280;55318;52.068;5.188;2023-05-10T02:04:40;100888.0;;;14.5;100.0
68376;BME280;55318;52.068;5.188;2023-05-10T02:06:18;100886.0;;;14.41;100.0
68376;BME280;55318;52.068;5.188;2023-05-10T02:09:36;100883.0;;;14.54;100.0
68376;BME280;55318;52.068;5.188;2023-05-10T02:11:15;100892.0;;;14.49;100.0
68376;BME280;55318;52.068;5.188;2023-05-10T02:12:53;100894.0;;;14.47;100.0
68376;BME280;55318;52.068;5.188;2023-05-10T02:16:11;100895.0;;;14.44;100.0
68376;BME280;55318;52.068;5.188;2023-05-10T02:17:49;100903.0;;;14.33;100.0
68376;BME280;55318;52.068;5.188;2023-05-10T02:19:30;100900.0;;;14.32;100.0
68376;BME280;55318;52.068;5.188;2023-05-10T02:21:08;100901.0;;;14.3;100.0
68376;BME280;55318;52.068;5.188;2023-05-10T02:24:25;100902.0;;;14.42;100.0
68376;BME280;55318;52.068;5.188;2023-05-10T02:26:02;100906.0;;;14.33;100.0
68376;BME280;55318;52.068;5.188;2023-05-10T02:27:41;100900.0;;;14.28;100.0
68376;BME280;55318;52.068;5.188;2023-05-10T02:29:18;100907.0;;;14.31;100.0
68376;BME280;55318;52.068;5.188;2023-05-10T02:32:33;100906.0;;;14.17;100.0
68376;BME280;55318;52.068;5.188;2023-05-10T02:34:11;100907.0;;;14.22;100.0
68376;BME280;55318;52.068;5.188;2023-05-10T02:35:50;100908.0;;;14.2;100.0
68376;BME280;55318;52.068;5.188;2023-05-10T02:39:04;100905.0;;;14.1;100.0
68376;BME280;55318;52.068;5.188;2023-05-10T02:40:42;100905.0;;;14.19;100.0
68376;BME280;55318;52.068;5.188;2023-05-10T02:42:27;100905.0;;;14.21;100.0
68376;BME280;55318;52.068;5.188;2023-05-10T02:44:06;100906.0;;;14.25;100.0
68376;BME280;55318;52.068;5.188;2023-05-10T02:47:23;100913.0;;;14.2;100.0
68376;BME280;55318;52.068;5.188;2023-05-10T02:49:00;100913.0;;;14.13;100.0
68376;BME280;55318;52.068;5.188;2023-05-10T02:50:37;100910.0;;;14.13;100.0
68376;BME280;55318;52.068;5.188;2023-05-10T02:52:23;100914.0;;;14.2;100.0
68376;BME280;55318;52.068;5.188;2023-05-10T02:55:59;100913.0;;;14.24;100.0
68376;BME280;55318;52.068;5.188;2023-05-10T02:57:40;100915.0;;;14.32;100.0
68376;BME280;55318;52.068;5.188;2023-05-10T02:59:17;100917.0;;;14.33;100.0
68376;BME280;55318;52.068;5.188;2023-05-10T03:00:53;100918.0;;;14.3;100.0
68376;BME280;55318;52.068;5.188;2023-05-10T03:04:06;100915.0;;;14.27;100.0
68376;BME280;55318;52.068;5.188;2023-05-10T03:05:42;100915.0;;;14.3;100.0
68376;BME280;55318;52.068;5.188;2023-05-10T03:07:19;100919.0;;;14.39;100.0
68376;BME280;55318;52.068;5.188;2023-05-10T03:10:32;100923.0;;;14.39;100.0
68376;BME280;55318;52.068;5.188;2023-05-10T03:12:15;100925.0;;;14.36;100.0
68376;BME280;55318;52.068;5.188;2023-05-10T03:14:12;100919.0;;;14.34;100.0
68376;BME280;55318;52.068;5.188;2023-05-10T03:15:58;100923.0;;;14.35;100.0
68376;BME280;55318;52.068;5.188;2023-05-10T03:17:43;100920.0;;;14.38;100.0
68376;BME280;55318;52.068;5.188;2023-05-10T03:21:07;100918.0;;;14.3;100.0
68376;BME280;55318;52.068;5.188;2023-05-10T03:22:48;100920.0;;;14.39;100.0
68376;BME280;55318;52.068;5.188;2023-05-10T03:24:27;100923.0;;;14.43;100.0
68376;BME280;55318;52.068;5.188;2023-05-10T03:26:04;100927.0;;;14.42;100.0
68376;BME280;55318;52.068;5.188;2023-05-10T03:29:21;100925.0;;;14.4;100.0
68376;BME280;55318;52.068;5.188;2023-05-10T03:30:59;100926.0;;;14.47;100.0
68376;BME280;55318;52.068;5.188;2023-05-10T03:32:35;100930.0;;;14.36;100.0
68376;BME280;55318;52.068;5.188;2023-05-10T03:34:11;100926.0;;;14.45;100.0
68376;BME280;55318;52.068;5.188;2023-05-10T03:37:23;100932.0;;;14.39;100.0
68376;BME280;55318;52.068;5.188;2023-05-10T03:38:59;100932.0;;;14.35;100.0
68376;BME280;55318;52.068;5.188;2023-05-10T03:40:35;100934.0;;;14.42;100.0
68376;BME280;55318;52.068;5.188;2023-05-10T03:43:48;100926.0;;;14.44;100.0
68376;BME280;55318;52.068;5.188;2023-05-10T03:45:24;100928.0;;;14.39;100.0
68376;BME280;55318;52.068;5.188;2023-05-10T03:47:00;100927.0;;;14.4;100.0
68376;BME280;55318;52.068;5.188;2023-05-10T03:50:13;100930.0;;;14.46;100.0
68376;BME280;55318;52.068;5.188;2023-05-10T03:51:49;100927.0;;;14.42;100.0
68376;BME280;55318;52.068;5.188;2023-05-10T03:53:26;100930.0;;;14.47;100.0
68376;BME280;55318;52.068;5.188;2023-05-10T03:55:02;100926.0;;;14.32;100.0
68376;BME280;55318;52.068;5.188;2023-05-10T03:58:14;100927.0;;;14.46;100.0
68376;BME280;55318;52.068;5.188;2023-05-10T04:01:27;100932.0;;;14.49;100.0
68376;BME280;55318;52.068;5.188;2023-05-10T04:04:40;100930.0;;;14.47;100.0
68376;BME280;55318;52.068;5.188;2023-05-10T04:06:15;100930.0;;;14.42;100.0
68376;BME280;55318;52.068;5.188;2023-05-10T04:13:14;100932.0;;;14.4;100.0
68376;BME280;55318;52.068;5.188;2023-05-10T04:14:49;100931.0;;;14.39;100.0
68376;BME280;55318;52.068;5.188;2023-05-10T04:16:25;100930.0;;;14.34;100.0
68376;BME280;55318;52.068;5.188;2023-05-10T04:19:38;100931.0;;;14.45;100.0
68376;BME280;55318;52.068;5.188;2023-05-10T04:21:14;100931.0;;;14.35;100.0
68376;BME280;55318;52.068;5.188;2023-05-10T04:22:50;100931.0;;;14.45;100.0
68376;BME280;55318;52.068;5.188;2023-05-10T04:24:26;100932.0;;;14.48;100.0
68376;BME280;55318;52.068;5.188;2023-05-10T04:27:38;100937.0;;;14.49;100.0
68376;BME280;55318;52.068;5.188;2023-05-10T04:29:14;100941.0;;;14.51;100.0
68376;BME280;55318;52.068;5.188;2023-05-10T04:30:50;100936.0;;;14.54;100.0
68376;BME280;55318;52.068;5.188;2023-05-10T04:34:03;100936.0;;;14.53;100.0
68376;BME280;55318;52.068;5.188;2023-05-10T04:35:39;100938.0;;;14.51;100.0
68376;BME280;55318;52.068;5.188;2023-05-10T04:37:15;100938.0;;;14.6;100.0
68376;BME280;55318;52.068;5.188;2023-05-10T04:40:27;100934.0;;;14.55;100.0
68376;BME280;55318;52.068;5.188;2023-05-10T04:42:04;100936.0;;;14.53;100.0
68376;BME280;55318;52.068;5.188;2023-05-10T04:43:40;100937.0;;;14.59;100.0
68376;BME280;55318;52.068;5.188;2023-05-10T04:45:16;100938.0;;;14.62;100.0
68376;BME280;55318;52.068;5.188;2023-05-10T04:48:28;100935.0;;;14.6;100.0
68376;BME280;55318;52.068;5.188;2023-05-10T04:50:05;100936.0;;;14.62;100.0
68376;BME280;55318;52.068;5.188;2023-05-10T04:51:42;100938.0;;;14.54;100.0
68376;BME280;55318;52.068;5.188;2023-05-10T04:54:55;100939.0;;;14.59;100.0
68376;BME280;55318;52.068;5.188;2023-05-10T04:56:31;100941.0;;;14.67;100.0
68376;BME280;55318;52.068;5.188;2023-05-10T04:58:07;100942.0;;;14.72;100.0
68376;BME280;55318;52.068;5.188;2023-05-10T05:01:19;100945.0;;;14.69;100.0
68376;BME280;55318;52.068;5.188;2023-05-10T05:02:55;100947.0;;;14.7;100.0
68376;BME280;55318;52.068;5.188;2023-05-10T05:07:44;100953.0;;;14.67;100.0
68376;BME280;55318;52.068;5.188;2023-05-10T05:09:20;100957.0;;;14.73;100.0
68376;BME280;55318;52.068;5.188;2023-05-10T05:10:56;100965.0;;;14.78;100.0
68376;BME280;55318;52.068;5.188;2023-05-10T05:12:32;100966.0;;;14.75;100.0
68376;BME280;55318;52.068;5.188;2023-05-10T05:15:44;100965.0;;;14.73;100.0
68376;BME280;55318;52.068;5.188;2023-05-10T05:17:21;100966.0;;;14.79;100.0
68376;BME280;55318;52.068;5.188;2023-05-10T05:18:57;100965.0;;;14.72;100.0
68376;BME280;55318;52.068;5.188;2023-05-10T05:22:16;100964.0;;;14.75;100.0
68376;BME280;55318;52.068;5.188;2023-05-10T05:23:54;100969.0;;;14.83;100.0
68376;BME280;55318;52.068;5.188;2023-05-10T05:25:31;100971.0;;;14.88;100.0
68376;BME280;55318;52.068;5.188;2023-05-10T05:27:07;100972.0;;;14.95;100.0
68376;BME280;55318;52.068;5.188;2023-05-10T05:30:18;100978.0;;;14.83;100.0
68376;BME280;55318;52.068;5.188;2023-05-10T05:31:54;100975.0;;;14.72;100.0
68376;BME280;55318;52.068;5.188;2023-05-10T05:33:32;100981.0;;;14.79;100.0
68376;BME280;55318;52.068;5.188;2023-05-10T05:36:45;100983.0;;;14.74;100.0
68376;BME280;55318;52.068;5.188;2023-05-10T05:38:22;100985.0;;;14.83;100.0
68376;BME280;55318;52.068;5.188;2023-05-10T05:39:59;100985.0;;;14.74;100.0
68376;BME280;55318;52.068;5.188;2023-05-10T05:43:15;100994.0;;;14.86;100.0
68376;BME280;55318;52.068;5.188;2023-05-10T05:44:53;100990.0;;;14.7;100.0
68376;BME280;55318;52.068;5.188;2023-05-10T05:46:31;100994.0;;;14.73;100.0
68376;BME280;55318;52.068;5.188;2023-05-10T05:48:08;100994.0;;;14.79;100.0
68376;BME280;55318;52.068;5.188;2023-05-10T05:51:24;101001.0;;;14.82;100.0
68376;BME280;55318;52.068;5.188;2023-05-10T05:53:01;101002.0;;;14.87;100.0
68376;BME280;55318;52.068;5.188;2023-05-10T05:54:37;101003.0;;;14.85;100.0
68376;BME280;55318;52.068;5.188;2023-05-10T05:57:52;101002.0;;;14.78;100.0
68376;BME280;55318;52.068;5.188;2023-05-10T05:59:30;101006.0;;;14.71;100.0
68376;BME280;55318;52.068;5.188;2023-05-10T06:01:07;101008.0;;;14.59;100.0
68376;BME280;55318;52.068;5.188;2023-05-10T06:02:45;101010.0;;;14.67;100.0
68376;BME280;55318;52.068;5.188;2023-05-10T06:06:01;101010.0;;;14.71;100.0
68376;BME280;55318;52.068;5.188;2023-05-10T06:07:39;101010.0;;;14.7;100.0
68376;BME280;55318;52.068;5.188;2023-05-10T06:09:16;101007.0;;;14.59;100.0
68376;BME280;55318;52.068;5.188;2023-05-10T06:12:30;101013.0;;;14.61;100.0
68376;BME280;55318;52.068;5.188;2023-05-10T06:14:08;101019.0;;;14.46;100.0
68376;BME280;55318;52.068;5.188;2023-05-10T06:15:45;101016.0;;;14.54;100.0
68376;BME280;55318;52.068;5.188;2023-05-10T06:17:23;101021.0;;;14.57;100.0
68376;BME280;55318;52.068;5.188;2023-05-10T06:20:38;101020.0;;;14.66;100.0
68376;BME280;55318;52.068;5.188;2023-05-10T06:22:18;101016.0;;;14.74;100.0
68376;BME280;55318;52.068;5.188;2023-05-10T06:23:55;101015.0;;;14.77;100.0
68376;BME280;55318;52.068;5.188;2023-05-10T06:27:11;101021.0;;;14.66;100.0
68376;BME280;55318;52.068;5.188;2023-05-10T06:28:49;101025.0;;;14.7;100.0
68376;BME280;55318;52.068;5.188;2023-05-10T06:30:26;101024.0;;;14.73;100.0
68376;BME280;55318;52.068;5.188;2023-05-10T06:32:04;101026.0;;;14.84;100.0
68376;BME280;55318;52.068;5.188;2023-05-10T06:35:19;101032.0;;;14.84;100.0
68376;BME280;55318;52.068;5.188;2023-05-10T06:36:57;101031.0;;;14.86;100.0
68376;BME280;55318;52.068;5.188;2023-05-10T06:38:35;101033.0;;;14.85;100.0
68376;BME280;55318;52.068;5.188;2023-05-10T06:41:51;101030.0;;;14.83;100.0
68376;BME280;55318;52.068;5.188;2023-05-10T06:43:28;101035.0;;;14.86;100.0
68376;BME280;55318;52.068;5.188;2023-05-10T06:45:07;101037.0;;;14.78;100.0
68376;BME280;55318;52.068;5.188;2023-05-10T06:46:44;101039.0;;;14.74;100.0
68376;BME280;55318;52.068;5.188;2023-05-10T06:49:58;101038.0;;;14.82;100.0
68376;BME280;55318;52.068;5.188;2023-05-10T06:51:35;101032.0;;;14.94;100.0
68376;BME280;55318;52.068;5.188;2023-05-10T06:53:11;101040.0;;;15.01;100.0
68376;BME280;55318;52.068;5.188;2023-05-10T06:56:26;101041.0;;;14.92;100.0
68376;BME280;55318;52.068;5.188;2023-05-10T06:58:03;101042.0;;;14.89;100.0
68376;BME280;55318;52.068;5.188;2023-05-10T06:59:40;101046.0;;;14.91;100.0
68376;BME280;55318;52.068;5.188;2023-05-10T07:01:18;101049.0;;;15.08;100.0
68376;BME280;55318;52.068;5.188;2023-05-10T07:04:32;101048.0;;;15.04;100.0
68376;BME280;55318;52.068;5.188;2023-05-10T07:06:08;101049.0;;;15.11;100.0
68376;BME280;55318;52.068;5.188;2023-05-10T07:07:45;101050.0;;;15.15;100.0
68376;BME280;55318;52.068;5.188;2023-05-10T07:11:02;101049.0;;;15.06;100.0
68376;BME280;55318;52.068;5.188;2023-05-10T07:12:40;101051.0;;;15.23;100.0
68376;BME280;55318;52.068;5.188;2023-05-10T07:14:18;101056.0;;;15.56;100.0
68376;BME280;55318;52.068;5.188;2023-05-10T07:15:56;101055.0;;;15.56;100.0
68376;BME280;55318;52.068;5.188;2023-05-10T07:19:11;101060.0;;;15.43;100.0
68376;BME280;55318;52.068;5.188;2023-05-10T07:20:48;101063.0;;;15.36;100.0
68376;BME280;55318;52.068;5.188;2023-05-10T07:22:26;101062.0;;;15.4;100.0
68376;BME280;55318;52.068;5.188;2023-05-10T07:25:41;101064.0;;;15.38;99.89
68376;BME280;55318;52.068;5.188;2023-05-10T07:27:19;101067.0;;;15.37;100.0
68376;BME280;55318;52.068;5.188;2023-05-10T07:28:56;101074.0;;;15.33;98.86
68376;BME280;55318;52.068;5.188;2023-05-10T07:30:33;101077.0;;;15.38;100.0
68376;BME280;55318;52.068;5.188;2023-05-10T07:33:48;101080.0;;;15.35;100.0
68376;BME280;55318;52.068;5.188;2023-05-10T07:35:25;101081.0;;;15.38;99.23
68376;BME280;55318;52.068;5.188;2023-05-10T07:37:02;101080.0;;;15.34;100.0
68376;BME280;55318;52.068;5.188;2023-05-10T07:40:18;101082.0;;;15.24;99.59
68376;BME280;55318;52.068;5.188;2023-05-10T07:41:55;101080.0;;;15.24;100.0
68376;BME280;55318;52.068;5.188;2023-05-10T07:43:33;101080.0;;;15.28;100.0
68376;BME280;55318;52.068;5.188;2023-05-10T07:45:11;101085.0;;;15.36;100.0
68376;BME280;55318;52.068;5.188;2023-05-10T07:48:26;101088.0;;;15.17;100.0
68376;BME280;55318;52.068;5.188;2023-05-10T07:50:03;101088.0;;;15.34;100.0
68376;BME280;55318;52.068;5.188;2023-05-10T07:51:41;101089.0;;;15.37;100.0
68376;BME280;55318;52.068;5.188;2023-05-10T07:54:55;101086.0;;;15.36;98.79
68376;BME280;55318;52.068;5.188;2023-05-10T07:56:32;101084.0;;;15.31;99.34
68376;BME280;55318;52.068;5.188;2023-05-10T07:58:09;101087.0;;;15.32;100.0
68376;BME280;55318;52.068;5.188;2023-05-10T08:01:24;101085.0;;;15.38;100.0
68376;BME280;55318;52.068;5.188;2023-05-10T08:03:03;101091.0;;;15.39;100.0
68376;BME280;55318;52.068;5.188;2023-05-10T08:04:39;101088.0;;;15.48;100.0
68376;BME280;55318;52.068;5.188;2023-05-10T08:06:17;101089.0;;;15.5;98.59
68376;BME280;55318;52.068;5.188;2023-05-10T08:09:33;101093.0;;;15.53;100.0
68376;BME280;55318;52.068;5.188;2023-05-10T08:11:10;101099.0;;;15.46;100.0
68376;BME280;55318;52.068;5.188;2023-05-10T08:12:48;101100.0;;;15.7;99.79
68376;BME280;55318;52.068;5.188;2023-05-10T08:16:04;101100.0;;;15.84;97.2
68376;BME280;55318;52.068;5.188;2023-05-10T08:17:42;101099.0;;;15.87;98.75
68376;BME280;55318;52.068;5.188;2023-05-10T08:19:20;101106.0;;;15.77;96.43
68376;BME280;55318;52.068;5.188;2023-05-10T08:20:58;101110.0;;;15.89;97.45
68376;BME280;55318;52.068;5.188;2023-05-10T08:24:13;101110.0;;;15.92;99.38
68376;BME280;55318;52.068;5.188;2023-05-10T08:25:50;101111.0;;;15.96;96.06
68376;BME280;55318;52.068;5.188;2023-05-10T08:27:26;101116.0;;;15.82;98.48
68376;BME280;55318;52.068;5.188;2023-05-10T08:30:40;101120.0;;;15.96;95.49
68376;BME280;55318;52.068;5.188;2023-05-10T08:32:18;101126.0;;;15.76;97.69
68376;BME280;55318;52.068;5.188;2023-05-10T08:33:55;101134.0;;;15.87;95.69
68376;BME280;55318;52.068;5.188;2023-05-10T08:35:33;101135.0;;;15.93;95.93
68376;BME280;55318;52.068;5.188;2023-05-10T08:38:50;101138.0;;;15.74;98.5
68376;BME280;55318;52.068;5.188;2023-05-10T08:40:29;101143.0;;;15.8;96.23
68376;BME280;55318;52.068;5.188;2023-05-10T08:42:07;101143.0;;;15.82;97.31
68376;BME280;55318;52.068;5.188;2023-05-10T08:43:47;101145.0;;;15.79;95.81
68376;BME280;55318;52.068;5.188;2023-05-10T08:47:08;101145.0;;;15.83;95.89
68376;BME280;55318;52.068;5.188;2023-05-10T08:48:49;101146.0;;;15.89;97.36
68376;BME280;55318;52.068;5.188;2023-05-10T08:50:27;101149.0;;;15.87;97.25
68376;BME280;55318;52.068;5.188;2023-05-10T08:53:45;101149.0;;;15.73;97.88
68376;BME280;55318;52.068;5.188;2023-05-10T08:55:23;101151.0;;;15.73;100.0
68376;BME280;55318;52.068;5.188;2023-05-10T08:57:01;101151.0;;;15.76;98.24
68376;BME280;55318;52.068;5.188;2023-05-10T08:58:38;101150.0;;;15.69;100.0
68376;BME280;55318;52.068;5.188;2023-05-10T09:01:57;101150.0;;;15.68;99.88
68376;BME280;55318;52.068;5.188;2023-05-10T09:03:34;101152.0;;;15.73;97.51
68376;BME280;55318;52.068;5.188;2023-05-10T09:05:12;101150.0;;;15.73;99.47
68376;BME280;55318;52.068;5.188;2023-05-10T09:06:48;101150.0;;;15.78;99.19
68376;BME280;55318;52.068;5.188;2023-05-10T09:10:05;101153.0;;;15.91;99.49
68376;BME280;55318;52.068;5.188;2023-05-10T09:11:44;101149.0;;;16.07;97.7
68376;BME280;55318;52.068;5.188;2023-05-10T09:13:21;101153.0;;;16.05;97.5
68376;BME280;55318;52.068;5.188;2023-05-10T09:16:40;101152.0;;;16.14;96.33
68376;BME280;55318;52.068;5.188;2023-05-10T09:18:18;101160.0;;;16.31;95.2
68376;BME280;55318;52.068;5.188;2023-05-10T09:19:57;101165.0;;;16.36;92.99
68376;BME280;55318;52.068;5.188;2023-05-10T09:21:37;101166.0;;;16.34;92.67
68376;BME280;55318;52.068;5.188;2023-05-10T09:25:03;101169.0;;;16.32;91.93
68376;BME280;55318;52.068;5.188;2023-05-10T09:26:46;101170.0;;;16.5;93.8
68376;BME280;55318;52.068;5.188;2023-05-10T09:28:24;101171.0;;;16.37;90.19
68376;BME280;55318;52.068;5.188;2023-05-10T09:30:02;101170.0;;;16.64;93.17
68376;BME280;55318;52.068;5.188;2023-05-10T09:33:23;101171.0;;;16.59;91.92
68376;BME280;55318;52.068;5.188;2023-05-10T09:35:06;101174.0;;;16.7;95.41
68376;BME280;55318;52.068;5.188;2023-05-10T09:36:53;101176.0;;;16.68;92.63
68376;BME280;55318;52.068;5.188;2023-05-10T09:38:45;101178.0;;;16.84;91.32
68376;BME280;55318;52.068;5.188;2023-05-10T09:40:24;101180.0;;;16.87;92.27
68376;BME280;55318;52.068;5.188;2023-05-10T09:43:42;101180.0;;;17.03;91.49
68376;BME280;55318;52.068;5.188;2023-05-10T09:45:19;101181.0;;;16.95;89.84
68376;BME280;55318;52.068;5.188;2023-05-10T09:46:58;101183.0;;;16.72;86.79
68376;BME280;55318;52.068;5.188;2023-05-10T09:50:20;101181.0;;;16.62;92.34
68376;BME280;55318;52.068;5.188;2023-05-10T09:52:00;101184.0;;;16.65;91.41
68376;BME280;55318;52.068;5.188;2023-05-10T09:53:38;101185.0;;;16.63;93.27
68376;BME280;55318;52.068;5.188;2023-05-10T09:55:17;101184.0;;;16.68;91.27
68376;BME280;55318;52.068;5.188;2023-05-10T09:58:36;101189.0;;;16.61;93.23
68376;BME280;55318;52.068;5.188;2023-05-10T10:00:17;101186.0;;;16.73;91.78
68376;BME280;55318;52.068;5.188;2023-05-10T10:01:56;101193.0;;;16.68;93.8
68376;BME280;55318;52.068;5.188;2023-05-10T10:03:41;101195.0;;;16.65;92.58
68376;BME280;55318;52.068;5.188;2023-05-10T10:06:59;101198.0;;;16.8;90.76
68376;BME280;55318;52.068;5.188;2023-05-10T10:08:37;101197.0;;;16.79;90.48
68376;BME280;55318;52.068;5.188;2023-05-10T10:10:15;101202.0;;;16.87;88.67
68376;BME280;55318;52.068;5.188;2023-05-10T10:11:53;101198.0;;;16.86;89.09
68376;BME280;55318;52.068;5.188;2023-05-10T10:15:10;101201.0;;;16.72;90.22
68376;BME280;55318;52.068;5.188;2023-05-10T10:16:47;101205.0;;;16.57;92.75
68376;BME280;55318;52.068;5.188;2023-05-10T10:18:27;101203.0;;;16.57;92.41
68376;BME280;55318;52.068;5.188;2023-05-10T10:20:05;101205.0;;;16.46;94.16
68376;BME280;55318;52.068;5.188;2023-05-10T10:23:20;101210.0;;;16.43;93.37
68376;BME280;55318;52.068;5.188;2023-05-10T10:24:58;101211.0;;;16.48;92.49
68376;BME280;55318;52.068;5.188;2023-05-10T10:26:37;101206.0;;;16.52;93.31
68376;BME280;55318;52.068;5.188;2023-05-10T10:30:11;101207.0;;;16.63;93.82
68376;BME280;55318;52.068;5.188;2023-05-10T10:32:00;101210.0;;;16.71;93.86
68376;BME280;55318;52.068;5.188;2023-05-10T10:33:54;101210.0;;;16.8;92.94
68376;BME280;55318;52.068;5.188;2023-05-10T10:35:37;101211.0;;;16.72;92.91
68376;BME280;55318;52.068;5.188;2023-05-10T10:37:14;101216.0;;;16.81;90.46
68376;BME280;55318;52.068;5.188;2023-05-10T10:38:56;101218.0;;;16.8;90.19
68376;BME280;55318;52.068;5.188;2023-05-10T10:42:11;101219.0;;;16.88;89.77
68376;BME280;55318;52.068;5.188;2023-05-10T10:43:48;101215.0;;;16.86;92.08
68376;BME280;55318;52.068;5.188;2023-05-10T10:45:26;101218.0;;;16.82;91.74
68376;BME280;55318;52.068;5.188;2023-05-10T10:48:48;101214.0;;;16.87;94.24
68376;BME280;55318;52.068;5.188;2023-05-10T10:50:26;101220.0;;;17.02;92.15
68376;BME280;55318;52.068;5.188;2023-05-10T10:52:22;101217.0;;;17.16;91.12
68376;BME280;55318;52.068;5.188;2023-05-10T10:54:09;101217.0;;;17.18;88.42
68376;BME280;55318;52.068;5.188;2023-05-10T10:55:46;101214.0;;;17.25;94.45
68376;BME280;55318;52.068;5.188;2023-05-10T10:59:03;101210.0;;;17.34;91.29
68376;BME280;55318;52.068;5.188;2023-05-10T11:00:40;101209.0;;;17.45;89.32
68376;BME280;55318;52.068;5.188;2023-05-10T11:02:49;101208.0;;;17.52;85.85
68376;BME280;55318;52.068;5.188;2023-05-10T11:04:26;101212.0;;;17.81;86.39
68376;BME280;55318;52.068;5.188;2023-05-10T11:06:02;101206.0;;;18.0;89.42
68376;BME280;55318;52.068;5.188;2023-05-10T11:09:26;101207.0;;;18.02;85.8
68376;BME280;55318;52.068;5.188;2023-05-10T11:11:05;101208.0;;;18.02;87.7
68376;BME280;55318;52.068;5.188;2023-05-10T11:12:51;101209.0;;;18.09;85.94
68376;BME280;55318;52.068;5.188;2023-05-10T11:14:27;101209.0;;;18.07;82.98
68376;BME280;55318;52.068;5.188;2023-05-10T11:17:50;101215.0;;;18.21;85.39
68376;BME280;55318;52.068;5.188;2023-05-10T11:19:27;101216.0;;;18.18;84.17